sensor_id;sensor_type;location;lat;lon;timestamp;pressure;altitude;pressure_sealevel;temperature;humidity
61359;BME280;47228;46.762;23.598;2023-06-22T00:01:23;97550.89;;;21.12;70.73
61359;BME280;47228;46.762;23.598;2023-06-22T00:03:52;97552.16;;;21.11;71.20
61359;BME280;47228;46.762;23.598;2023-06-22T00:06:20;97555.72;;;21.09;71.58
61359;BME280;47228;46.762;23.598;2023-06-22T00:08:48;97558.20;;;21.04;71.75
61359;BME280;47228;46.762;23.598;2023-06-22T00:11:16;97558.73;;;21.00;72.20
61359;BME280;47228;46.762;23.598;2023-06-22T00:13:44;97554.52;;;20.97;72.46
61359;BME280;47228;46.762;23.598;2023-06-22T00:16:12;97549.11;;;20.97;72.53
61359;BME280;47228;46.762;23.598;2023-06-22T00:18:40;97544.58;;;20.96;72.77
61359;BME280;47228;46.762;23.598;2023-06-22T00:21:14;97547.60;;;20.95;72.94
61359;BME280;47228;46.762;23.598;2023-06-22T00:23:42;97548.36;;;20.94;73.23
61359;BME280;47228;46.762;23.598;2023-06-22T00:26:10;97547.86;;;20.90;73.58
61359;BME280;47228;46.762;23.598;2023-06-22T00:28:39;97555.75;;;20.86;73.79
61359;BME280;47228;46.762;23.598;2023-06-22T00:31:07;97563.77;;;20.81;74.47
61359;BME280;47228;46.762;23.598;2023-06-22T00:33:35;97573.90;;;20.73;75.20
61359;BME280;47228;46.762;23.598;2023-06-22T00:36:03;97583.25;;;20.64;75.28
61359;BME280;47228;46.762;23.598;2023-06-22T00:38:31;97593.95;;;20.57;75.55
61359;BME280;47228;46.762;23.598;2023-06-22T00:40:59;97599.92;;;20.50;75.66
61359;BME280;47228;46.762;23.598;2023-06-22T00:43:27;97593.77;;;20.46;75.94
61359;BME280;47228;46.762;23.598;2023-06-22T00:45:55;97588.73;;;20.46;75.97
61359;BME280;47228;46.762;23.598;2023-06-22T00:48:25;97591.00;;;20.46;76.21
61359;BME280;47228;46.762;23.598;2023-06-22T00:50:53;97583.30;;;20.45;76.72
61359;BME280;47228;46.762;23.598;2023-06-22T00:53:23;97577.14;;;20.46;77.26
61359;BME280;47228;46.762;23.598;2023-06-22T00:55:51;97561.54;;;20.43;78.05
61359;BME280;47228;46.762;23.598;2023-06-22T00:58:19;97551.00;;;20.40;78.58
61359;BME280;47228;46.762;23.598;2023-06-22T01:00:52;97533.83;;;20.38;79.01
61359;BME280;47228;46.762;23.598;2023-06-22T01:03:20;97528.11;;;20.38;79.40
61359;BME280;47228;46.762;23.598;2023-06-22T01:05:49;97537.16;;;20.37;79.89
61359;BME280;47228;46.762;23.598;2023-06-22T01:08:38;97558.02;;;20.33;80.43
61359;BME280;47228;46.762;23.598;2023-06-22T01:11:17;97568.98;;;20.24;80.69
61359;BME280;47228;46.762;23.598;2023-06-22T01:13:54;97574.33;;;20.15;81.13
61359;BME280;47228;46.762;23.598;2023-06-22T01:16:29;97566.08;;;20.06;81.67
61359;BME280;47228;46.762;23.598;2023-06-22T01:19:00;97561.14;;;20.00;82.04
61359;BME280;47228;46.762;23.598;2023-06-22T01:21:30;97568.02;;;19.96;82.37
61359;BME280;47228;46.762;23.598;2023-06-22T01:27:33;97577.63;;;19.80;83.81
61359;BME280;47228;46.762;23.598;2023-06-22T01:30:05;97577.26;;;19.73;84.08
61359;BME280;47228;46.762;23.598;2023-06-22T01:32:35;97577.31;;;19.68;84.70
61359;BME280;47228;46.762;23.598;2023-06-22T01:35:06;97570.13;;;19.65;85.01
61359;BME280;47228;46.762;23.598;2023-06-22T01:37:36;97564.78;;;19.63;85.73
61359;BME280;47228;46.762;23.598;2023-06-22T01:40:05;97558.98;;;19.60;86.35
61359;BME280;47228;46.762;23.598;2023-06-22T01:42:37;97559.23;;;19.57;86.74
61359;BME280;47228;46.762;23.598;2023-06-22T01:45:07;97545.72;;;19.51;87.11
61359;BME280;47228;46.762;23.598;2023-06-22T01:47:34;97541.98;;;19.47;87.34
61359;BME280;47228;46.762;23.598;2023-06-22T01:50:03;97539.73;;;19.43;87.66
61359;BME280;47228;46.762;23.598;2023-06-22T01:52:32;97531.69;;;19.41;87.95
61359;BME280;47228;46.762;23.598;2023-06-22T01:55:01;97527.63;;;19.39;87.83
61359;BME280;47228;46.762;23.598;2023-06-22T01:57:29;97525.20;;;19.37;88.03
61359;BME280;47228;46.762;23.598;2023-06-22T02:00:03;97520.30;;;19.39;88.33
61359;BME280;47228;46.762;23.598;2023-06-22T02:05:09;97506.56;;;19.45;89.08
61359;BME280;47228;46.762;23.598;2023-06-22T02:07:45;97497.81;;;19.47;89.13
61359;BME280;47228;46.762;23.598;2023-06-22T02:10:16;97487.27;;;19.51;89.20
61359;BME280;47228;46.762;23.598;2023-06-22T02:12:45;97484.27;;;19.53;88.94
61359;BME280;47228;46.762;23.598;2023-06-22T02:15:14;97478.77;;;19.53;89.08
61359;BME280;47228;46.762;23.598;2023-06-22T02:17:43;97468.44;;;19.55;89.35
61359;BME280;47228;46.762;23.598;2023-06-22T02:20:13;97456.55;;;19.56;89.46
61359;BME280;47228;46.762;23.598;2023-06-22T02:22:42;97455.31;;;19.57;89.59
61359;BME280;47228;46.762;23.598;2023-06-22T02:25:10;97460.85;;;19.54;89.09
61359;BME280;47228;46.762;23.598;2023-06-22T02:27:38;97469.21;;;19.48;89.14
61359;BME280;47228;46.762;23.598;2023-06-22T02:30:10;97478.92;;;19.43;89.48
61359;BME280;47228;46.762;23.598;2023-06-22T02:32:38;97487.23;;;19.40;89.61
61359;BME280;47228;46.762;23.598;2023-06-22T02:35:09;97493.59;;;19.37;89.79
61359;BME280;47228;46.762;23.598;2023-06-22T02:37:38;97501.33;;;19.36;89.94
61359;BME280;47228;46.762;23.598;2023-06-22T02:40:10;97500.13;;;19.33;89.78
61359;BME280;47228;46.762;23.598;2023-06-22T02:42:39;97501.21;;;19.27;89.90
61359;BME280;47228;46.762;23.598;2023-06-22T02:45:07;97501.85;;;19.22;89.97
61359;BME280;47228;46.762;23.598;2023-06-22T02:47:35;97507.70;;;19.18;90.32
61359;BME280;47228;46.762;23.598;2023-06-22T02:50:04;97508.70;;;19.15;90.62
61359;BME280;47228;46.762;23.598;2023-06-22T02:52:32;97512.29;;;19.14;90.57
61359;BME280;47228;46.762;23.598;2023-06-22T02:55:00;97513.42;;;19.15;90.75
61359;BME280;47228;46.762;23.598;2023-06-22T02:57:27;97512.91;;;19.16;90.79
61359;BME280;47228;46.762;23.598;2023-06-22T02:59:56;97509.20;;;19.18;90.80
61359;BME280;47228;46.762;23.598;2023-06-22T03:02:25;97508.79;;;19.19;90.77
61359;BME280;47228;46.762;23.598;2023-06-22T03:04:54;97506.96;;;19.19;90.26
61359;BME280;47228;46.762;23.598;2023-06-22T03:07:22;97509.52;;;19.18;90.17
61359;BME280;47228;46.762;23.598;2023-06-22T03:09:50;97511.64;;;19.19;90.30
61359;BME280;47228;46.762;23.598;2023-06-22T03:12:18;97520.08;;;19.22;90.38
61359;BME280;47228;46.762;23.598;2023-06-22T03:14:45;97528.99;;;19.28;90.12
61359;BME280;47228;46.762;23.598;2023-06-22T03:17:13;97526.29;;;19.32;90.21
61359;BME280;47228;46.762;23.598;2023-06-22T03:19:41;97524.92;;;19.37;90.34
61359;BME280;47228;46.762;23.598;2023-06-22T03:22:09;97529.11;;;19.41;90.20
61359;BME280;47228;46.762;23.598;2023-06-22T03:24:40;97529.14;;;19.45;89.89
61359;BME280;47228;46.762;23.598;2023-06-22T03:27:08;97527.92;;;19.48;89.65
61359;BME280;47228;46.762;23.598;2023-06-22T03:29:36;97527.08;;;19.52;90.24
61359;BME280;47228;46.762;23.598;2023-06-22T03:32:04;97527.45;;;19.56;90.15
61359;BME280;47228;46.762;23.598;2023-06-22T03:34:33;97525.80;;;19.59;90.02
61359;BME280;47228;46.762;23.598;2023-06-22T03:37:04;97525.21;;;19.61;90.06
61359;BME280;47228;46.762;23.598;2023-06-22T03:39:31;97525.50;;;19.62;90.17
61359;BME280;47228;46.762;23.598;2023-06-22T03:41:59;97523.67;;;19.63;89.94
61359;BME280;47228;46.762;23.598;2023-06-22T03:44:27;97530.48;;;19.65;89.76
61359;BME280;47228;46.762;23.598;2023-06-22T03:46:55;97534.75;;;19.69;90.00
61359;BME280;47228;46.762;23.598;2023-06-22T03:49:23;97537.27;;;19.73;90.25
61359;BME280;47228;46.762;23.598;2023-06-22T03:51:51;97540.52;;;19.77;90.07
61359;BME280;47228;46.762;23.598;2023-06-22T03:54:19;97544.15;;;19.78;89.72
61359;BME280;47228;46.762;23.598;2023-06-22T03:56:47;97547.33;;;19.79;89.66
61359;BME280;47228;46.762;23.598;2023-06-22T03:59:15;97551.64;;;19.80;89.58
61359;BME280;47228;46.762;23.598;2023-06-22T04:01:43;97555.09;;;19.81;89.62
61359;BME280;47228;46.762;23.598;2023-06-22T04:04:12;97552.37;;;19.83;89.74
61359;BME280;47228;46.762;23.598;2023-06-22T04:06:40;97549.81;;;19.87;89.78
61359;BME280;47228;46.762;23.598;2023-06-22T04:09:08;97550.96;;;19.92;89.59
61359;BME280;47228;46.762;23.598;2023-06-22T04:11:36;97554.21;;;19.98;89.79
61359;BME280;47228;46.762;23.598;2023-06-22T04:14:04;97555.83;;;20.04;89.73
61359;BME280;47228;46.762;23.598;2023-06-22T04:16:32;97557.60;;;20.12;89.33
61359;BME280;47228;46.762;23.598;2023-06-22T04:19:00;97554.02;;;20.17;88.92
61359;BME280;47228;46.762;23.598;2023-06-22T04:21:28;97553.02;;;20.23;88.43
61359;BME280;47228;46.762;23.598;2023-06-22T04:23:56;97550.30;;;20.27;87.72
61359;BME280;47228;46.762;23.598;2023-06-22T04:26:24;97550.73;;;20.32;87.39
61359;BME280;47228;46.762;23.598;2023-06-22T04:28:52;97548.11;;;20.35;87.65
61359;BME280;47228;46.762;23.598;2023-06-22T04:31:23;97549.81;;;20.40;87.28
61359;BME280;47228;46.762;23.598;2023-06-22T04:33:55;97553.12;;;20.44;87.63
61359;BME280;47228;46.762;23.598;2023-06-22T04:36:22;97556.95;;;20.46;87.18
61359;BME280;47228;46.762;23.598;2023-06-22T04:38:52;97558.89;;;20.45;86.56
61359;BME280;47228;46.762;23.598;2023-06-22T04:41:20;97561.65;;;20.44;86.42
61359;BME280;47228;46.762;23.598;2023-06-22T04:43:52;97560.95;;;20.45;86.47
61359;BME280;47228;46.762;23.598;2023-06-22T04:46:22;97554.21;;;20.47;85.95
61359;BME280;47228;46.762;23.598;2023-06-22T04:48:50;97546.73;;;20.52;85.93
61359;BME280;47228;46.762;23.598;2023-06-22T04:51:17;97545.19;;;20.58;85.54
61359;BME280;47228;46.762;23.598;2023-06-22T04:53:49;97550.23;;;20.63;85.55
61359;BME280;47228;46.762;23.598;2023-06-22T04:56:17;97553.15;;;20.68;85.58
61359;BME280;47228;46.762;23.598;2023-06-22T04:58:45;97552.91;;;20.73;85.48
61359;BME280;47228;46.762;23.598;2023-06-22T05:01:13;97550.98;;;20.76;84.75
61359;BME280;47228;46.762;23.598;2023-06-22T05:03:41;97551.63;;;20.79;84.58
61359;BME280;47228;46.762;23.598;2023-06-22T05:06:09;97551.53;;;20.83;84.87
61359;BME280;47228;46.762;23.598;2023-06-22T05:08:37;97556.67;;;20.86;84.64
61359;BME280;47228;46.762;23.598;2023-06-22T05:11:07;97557.31;;;20.84;84.30
61359;BME280;47228;46.762;23.598;2023-06-22T05:13:35;97554.44;;;20.82;84.34
61359;BME280;47228;46.762;23.598;2023-06-22T05:16:03;97548.56;;;20.85;84.56
61359;BME280;47228;46.762;23.598;2023-06-22T05:18:33;97548.83;;;20.88;84.63
61359;BME280;47228;46.762;23.598;2023-06-22T05:21:02;97548.36;;;20.92;84.46
61359;BME280;47228;46.762;23.598;2023-06-22T05:23:30;97548.25;;;20.95;84.55
61359;BME280;47228;46.762;23.598;2023-06-22T05:25:58;97552.89;;;21.01;84.50
61359;BME280;47228;46.762;23.598;2023-06-22T05:28:26;97556.95;;;21.04;84.18
61359;BME280;47228;46.762;23.598;2023-06-22T05:30:54;97557.62;;;21.08;84.01
61359;BME280;47228;46.762;23.598;2023-06-22T05:33:22;97552.82;;;21.11;83.74
61359;BME280;47228;46.762;23.598;2023-06-22T05:35:50;97550.45;;;21.12;82.91
61359;BME280;47228;46.762;23.598;2023-06-22T05:38:18;97544.23;;;21.12;82.86
61359;BME280;47228;46.762;23.598;2023-06-22T05:40:46;97543.38;;;21.16;83.67
61359;BME280;47228;46.762;23.598;2023-06-22T05:43:15;97544.83;;;21.24;83.71
61359;BME280;47228;46.762;23.598;2023-06-22T05:45:43;97547.44;;;21.31;83.73
61359;BME280;47228;46.762;23.598;2023-06-22T05:48:11;97543.23;;;21.36;82.40
61359;BME280;47228;46.762;23.598;2023-06-22T05:50:39;97535.23;;;21.36;81.52
61359;BME280;47228;46.762;23.598;2023-06-22T05:53:08;97538.91;;;21.38;81.67
61359;BME280;47228;46.762;23.598;2023-06-22T05:55:36;97541.98;;;21.42;82.17
61359;BME280;47228;46.762;23.598;2023-06-22T05:58:04;97539.16;;;21.49;82.26
61359;BME280;47228;46.762;23.598;2023-06-22T06:00:32;97537.56;;;21.56;82.29
61359;BME280;47228;46.762;23.598;2023-06-22T06:03:01;97538.27;;;21.65;82.17
61359;BME280;47228;46.762;23.598;2023-06-22T06:05:32;97542.77;;;21.74;81.95
61359;BME280;47228;46.762;23.598;2023-06-22T06:08:02;97545.84;;;21.84;81.76
61359;BME280;47228;46.762;23.598;2023-06-22T06:10:33;97538.68;;;21.91;81.72
61359;BME280;47228;46.762;23.598;2023-06-22T06:13:01;97541.70;;;22.00;81.32
61359;BME280;47228;46.762;23.598;2023-06-22T06:15:34;97543.08;;;22.10;80.42
61359;BME280;47228;46.762;23.598;2023-06-22T06:18:02;97543.92;;;22.18;80.15
61359;BME280;47228;46.762;23.598;2023-06-22T06:20:32;97548.17;;;22.27;79.93
61359;BME280;47228;46.762;23.598;2023-06-22T06:23:01;97548.09;;;22.35;79.49
61359;BME280;47228;46.762;23.598;2023-06-22T06:25:29;97544.66;;;22.42;78.74
61359;BME280;47228;46.762;23.598;2023-06-22T06:27:57;97548.04;;;22.49;77.74
61359;BME280;47228;46.762;23.598;2023-06-22T06:30:25;97550.36;;;22.54;76.68
61359;BME280;47228;46.762;23.598;2023-06-22T06:32:53;97551.33;;;22.57;76.42
61359;BME280;47228;46.762;23.598;2023-06-22T06:35:21;97548.84;;;22.58;76.13
61359;BME280;47228;46.762;23.598;2023-06-22T06:37:50;97547.48;;;22.60;75.97
61359;BME280;47228;46.762;23.598;2023-06-22T06:40:18;97549.95;;;22.65;76.13
61359;BME280;47228;46.762;23.598;2023-06-22T06:42:47;97555.50;;;22.72;76.44
61359;BME280;47228;46.762;23.598;2023-06-22T06:45:25;97558.10;;;22.80;76.59
61359;BME280;47228;46.762;23.598;2023-06-22T06:47:56;97562.12;;;22.90;76.35
61359;BME280;47228;46.762;23.598;2023-06-22T06:50:24;97566.83;;;22.99;74.87
61359;BME280;47228;46.762;23.598;2023-06-22T06:52:52;97567.61;;;23.07;74.73
61359;BME280;47228;46.762;23.598;2023-06-22T06:55:20;97567.76;;;23.16;74.50
61359;BME280;47228;46.762;23.598;2023-06-22T06:57:48;97564.09;;;23.25;74.02
61359;BME280;47228;46.762;23.598;2023-06-22T07:00:16;97562.95;;;23.32;73.09
61359;BME280;47228;46.762;23.598;2023-06-22T07:02:45;97562.38;;;23.41;72.68
61359;BME280;47228;46.762;23.598;2023-06-22T07:05:15;97561.88;;;23.48;70.06
61359;BME280;47228;46.762;23.598;2023-06-22T07:07:43;97562.28;;;23.53;67.96
61359;BME280;47228;46.762;23.598;2023-06-22T07:10:11;97559.27;;;23.57;67.63
61359;BME280;47228;46.762;23.598;2023-06-22T07:12:39;97556.98;;;23.64;68.55
61359;BME280;47228;46.762;23.598;2023-06-22T07:15:09;97563.36;;;23.73;68.19
61359;BME280;47228;46.762;23.598;2023-06-22T07:17:37;97565.73;;;23.80;67.45
61359;BME280;47228;46.762;23.598;2023-06-22T07:20:07;97569.73;;;23.89;67.30
61359;BME280;47228;46.762;23.598;2023-06-22T07:22:41;97571.70;;;23.98;67.52
61359;BME280;47228;46.762;23.598;2023-06-22T07:25:09;97572.91;;;24.07;68.01
61359;BME280;47228;46.762;23.598;2023-06-22T07:27:38;97571.98;;;24.17;68.84
61359;BME280;47228;46.762;23.598;2023-06-22T07:30:11;97573.59;;;24.28;68.74
61359;BME280;47228;46.762;23.598;2023-06-22T07:32:39;97574.36;;;24.37;68.27
61359;BME280;47228;46.762;23.598;2023-06-22T07:35:08;97575.52;;;24.46;68.46
61359;BME280;47228;46.762;23.598;2023-06-22T07:37:36;97577.21;;;24.54;68.83
61359;BME280;47228;46.762;23.598;2023-06-22T07:40:05;97576.21;;;24.64;68.78
61359;BME280;47228;46.762;23.598;2023-06-22T07:42:34;97574.36;;;24.74;67.76
61359;BME280;47228;46.762;23.598;2023-06-22T07:45:03;97569.79;;;24.84;67.10
61359;BME280;47228;46.762;23.598;2023-06-22T07:47:31;97565.23;;;24.94;67.56
61359;BME280;47228;46.762;23.598;2023-06-22T07:50:03;97567.10;;;25.03;67.10
61359;BME280;47228;46.762;23.598;2023-06-22T07:52:32;97563.80;;;25.14;66.76
61359;BME280;47228;46.762;23.598;2023-06-22T07:55:01;97572.02;;;25.24;65.95
61359;BME280;47228;46.762;23.598;2023-06-22T07:57:30;97572.38;;;25.34;65.74
61359;BME280;47228;46.762;23.598;2023-06-22T08:00:04;97570.57;;;25.46;65.23
61359;BME280;47228;46.762;23.598;2023-06-22T08:02:45;97568.58;;;25.54;63.96
61359;BME280;47228;46.762;23.598;2023-06-22T08:05:14;97572.77;;;25.63;64.83
61359;BME280;47228;46.762;23.598;2023-06-22T08:07:49;97580.02;;;25.75;65.03
61359;BME280;47228;46.762;23.598;2023-06-22T08:10:18;97581.27;;;25.85;64.54
61359;BME280;47228;46.762;23.598;2023-06-22T08:12:46;97581.36;;;25.95;63.27
61359;BME280;47228;46.762;23.598;2023-06-22T08:15:14;97583.66;;;26.01;62.49
61359;BME280;47228;46.762;23.598;2023-06-22T08:17:44;97586.77;;;26.06;62.66
61359;BME280;47228;46.762;23.598;2023-06-22T08:20:13;97591.66;;;26.15;63.29
61359;BME280;47228;46.762;23.598;2023-06-22T08:22:42;97591.73;;;26.24;63.41
61359;BME280;47228;46.762;23.598;2023-06-22T08:25:10;97590.44;;;26.30;62.86
61359;BME280;47228;46.762;23.598;2023-06-22T08:27:38;97586.41;;;26.39;62.17
61359;BME280;47228;46.762;23.598;2023-06-22T08:30:07;97590.66;;;26.42;61.24
61359;BME280;47228;46.762;23.598;2023-06-22T08:32:35;97589.85;;;26.48;61.18
61359;BME280;47228;46.762;23.598;2023-06-22T08:35:03;97590.79;;;26.52;60.70
61359;BME280;47228;46.762;23.598;2023-06-22T08:37:33;97597.91;;;26.47;60.11
61359;BME280;47228;46.762;23.598;2023-06-22T08:40:04;97596.73;;;26.40;60.50
61359;BME280;47228;46.762;23.598;2023-06-22T08:42:33;97597.34;;;26.34;60.52
61359;BME280;47228;46.762;23.598;2023-06-22T08:45:01;97597.83;;;26.37;60.95
61359;BME280;47228;46.762;23.598;2023-06-22T08:47:29;97598.20;;;26.46;60.83
61359;BME280;47228;46.762;23.598;2023-06-22T08:49:58;97596.50;;;26.58;59.59
61359;BME280;47228;46.762;23.598;2023-06-22T08:52:25;97593.70;;;26.65;58.97
61359;BME280;47228;46.762;23.598;2023-06-22T08:54:53;97597.24;;;26.68;57.71
61359;BME280;47228;46.762;23.598;2023-06-22T08:57:21;97603.92;;;26.66;55.67
61359;BME280;47228;46.762;23.598;2023-06-22T08:59:49;97604.38;;;26.63;54.86
61359;BME280;47228;46.762;23.598;2023-06-22T09:02:19;97601.01;;;26.68;53.81
61359;BME280;47228;46.762;23.598;2023-06-22T09:04:47;97599.20;;;26.76;54.08
61359;BME280;47228;46.762;23.598;2023-06-22T09:07:16;97602.14;;;26.89;53.23
61359;BME280;47228;46.762;23.598;2023-06-22T09:09:50;97597.08;;;27.03;51.98
61359;BME280;47228;46.762;23.598;2023-06-22T09:12:20;97588.92;;;27.15;50.59
61359;BME280;47228;46.762;23.598;2023-06-22T09:14:50;97581.83;;;27.27;51.24
61359;BME280;47228;46.762;23.598;2023-06-22T09:17:18;97586.36;;;27.39;49.62
61359;BME280;47228;46.762;23.598;2023-06-22T09:19:46;97582.33;;;27.45;49.66
61359;BME280;47228;46.762;23.598;2023-06-22T09:22:15;97579.54;;;27.50;49.56
61359;BME280;47228;46.762;23.598;2023-06-22T09:24:43;97577.65;;;27.56;50.55
61359;BME280;47228;46.762;23.598;2023-06-22T09:27:11;97578.02;;;27.64;49.75
61359;BME280;47228;46.762;23.598;2023-06-22T09:29:39;97581.55;;;27.66;48.41
61359;BME280;47228;46.762;23.598;2023-06-22T09:32:07;97581.71;;;27.63;49.00
61359;BME280;47228;46.762;23.598;2023-06-22T09:34:35;97582.98;;;27.61;48.59
61359;BME280;47228;46.762;23.598;2023-06-22T09:37:03;97578.52;;;27.59;48.02
61359;BME280;47228;46.762;23.598;2023-06-22T09:39:31;97576.06;;;27.59;48.24
61359;BME280;47228;46.762;23.598;2023-06-22T09:42:00;97572.38;;;27.60;48.01
61359;BME280;47228;46.762;23.598;2023-06-22T09:44:28;97571.65;;;27.66;49.36
61359;BME280;47228;46.762;23.598;2023-06-22T09:46:56;97568.10;;;27.76;49.34
61359;BME280;47228;46.762;23.598;2023-06-22T09:49:24;97572.88;;;27.77;47.98
61359;BME280;47228;46.762;23.598;2023-06-22T09:52:12;97576.68;;;27.81;48.82
61359;BME280;47228;46.762;23.598;2023-06-22T09:54:40;97576.48;;;27.90;48.75
61359;BME280;47228;46.762;23.598;2023-06-22T09:57:08;97576.02;;;27.96;48.88
61359;BME280;47228;46.762;23.598;2023-06-22T09:59:36;97575.20;;;28.08;49.41
61359;BME280;47228;46.762;23.598;2023-06-22T10:02:04;97576.19;;;28.22;49.11
61359;BME280;47228;46.762;23.598;2023-06-22T10:04:36;97581.70;;;28.29;47.84
61359;BME280;47228;46.762;23.598;2023-06-22T10:07:05;97580.14;;;28.32;47.08
61359;BME280;47228;46.762;23.598;2023-06-22T10:09:33;97576.27;;;28.34;47.16
61359;BME280;47228;46.762;23.598;2023-06-22T10:12:01;97574.76;;;28.37;47.85
61359;BME280;47228;46.762;23.598;2023-06-22T10:14:28;97576.19;;;28.39;48.30
61359;BME280;47228;46.762;23.598;2023-06-22T10:16:57;97577.43;;;28.31;48.37
61359;BME280;47228;46.762;23.598;2023-06-22T10:19:27;97575.83;;;28.23;48.82
61359;BME280;47228;46.762;23.598;2023-06-22T10:21:54;97573.38;;;28.20;48.82
61359;BME280;47228;46.762;23.598;2023-06-22T10:24:23;97571.63;;;28.19;49.13
61359;BME280;47228;46.762;23.598;2023-06-22T10:26:50;97568.88;;;28.27;49.43
61359;BME280;47228;46.762;23.598;2023-06-22T10:29:19;97565.52;;;28.30;49.00
61359;BME280;47228;46.762;23.598;2023-06-22T10:31:47;97566.40;;;28.22;48.98
61359;BME280;47228;46.762;23.598;2023-06-22T10:34:15;97561.77;;;28.25;49.68
61359;BME280;47228;46.762;23.598;2023-06-22T10:36:43;97563.52;;;28.39;50.07
61359;BME280;47228;46.762;23.598;2023-06-22T10:39:14;97562.48;;;28.56;50.38
61359;BME280;47228;46.762;23.598;2023-06-22T10:41:42;97560.84;;;28.63;49.50
61359;BME280;47228;46.762;23.598;2023-06-22T10:44:10;97568.17;;;28.56;49.62
61359;BME280;47228;46.762;23.598;2023-06-22T10:46:40;97570.52;;;28.43;49.73
61359;BME280;47228;46.762;23.598;2023-06-22T10:49:08;97567.13;;;28.31;50.17
61359;BME280;47228;46.762;23.598;2023-06-22T10:51:35;97564.48;;;28.21;50.08
61359;BME280;47228;46.762;23.598;2023-06-22T10:54:03;97564.55;;;28.05;49.84
61359;BME280;47228;46.762;23.598;2023-06-22T10:56:32;97561.30;;;27.84;50.30
61359;BME280;47228;46.762;23.598;2023-06-22T10:59:01;97562.69;;;27.62;51.08
61359;BME280;47228;46.762;23.598;2023-06-22T11:01:29;97563.67;;;27.53;51.48
61359;BME280;47228;46.762;23.598;2023-06-22T11:04:03;97556.42;;;27.57;51.49
61359;BME280;47228;46.762;23.598;2023-06-22T11:06:32;97554.83;;;27.74;52.09
61359;BME280;47228;46.762;23.598;2023-06-22T11:09:00;97559.52;;;28.00;51.32
61359;BME280;47228;46.762;23.598;2023-06-22T11:11:50;97561.59;;;28.18;51.63
61359;BME280;47228;46.762;23.598;2023-06-22T11:14:19;97566.29;;;28.22;50.44
61359;BME280;47228;46.762;23.598;2023-06-22T11:16:49;97567.66;;;28.05;49.60
61359;BME280;47228;46.762;23.598;2023-06-22T11:19:18;97565.77;;;27.88;50.30
61359;BME280;47228;46.762;23.598;2023-06-22T11:21:46;97563.30;;;27.82;51.00
61359;BME280;47228;46.762;23.598;2023-06-22T11:24:13;97563.92;;;27.88;51.75
61359;BME280;47228;46.762;23.598;2023-06-22T11:26:41;97564.30;;;28.07;52.27
61359;BME280;47228;46.762;23.598;2023-06-22T11:29:09;97561.20;;;28.29;51.31
61359;BME280;47228;46.762;23.598;2023-06-22T11:31:54;97568.09;;;28.61;49.31
61359;BME280;47228;46.762;23.598;2023-06-22T11:34:22;97567.73;;;28.85;48.42
61359;BME280;47228;46.762;23.598;2023-06-22T11:36:50;97571.77;;;28.99;48.34
61359;BME280;47228;46.762;23.598;2023-06-22T11:39:18;97568.15;;;28.97;48.03
61359;BME280;47228;46.762;23.598;2023-06-22T11:41:56;97569.67;;;28.80;47.52
61359;BME280;47228;46.762;23.598;2023-06-22T11:44:24;97569.71;;;28.57;48.47
61359;BME280;47228;46.762;23.598;2023-06-22T11:46:52;97566.47;;;28.35;48.58
61359;BME280;47228;46.762;23.598;2023-06-22T11:49:20;97565.73;;;28.17;49.19
61359;BME280;47228;46.762;23.598;2023-06-22T11:51:48;97563.56;;;28.06;48.65
61359;BME280;47228;46.762;23.598;2023-06-22T11:54:16;97560.55;;;28.06;49.45
61359;BME280;47228;46.762;23.598;2023-06-22T11:56:44;97556.25;;;28.22;49.54
61359;BME280;47228;46.762;23.598;2023-06-22T11:59:12;97562.00;;;28.36;49.44
61359;BME280;47228;46.762;23.598;2023-06-22T12:01:41;97560.09;;;28.38;49.91
61359;BME280;47228;46.762;23.598;2023-06-22T12:04:09;97560.45;;;28.33;49.90
61359;BME280;47228;46.762;23.598;2023-06-22T12:06:38;97560.61;;;28.21;49.03
61359;BME280;47228;46.762;23.598;2023-06-22T12:09:09;97557.21;;;28.02;49.31
61359;BME280;47228;46.762;23.598;2023-06-22T12:11:37;97558.04;;;27.93;50.36
61359;BME280;47228;46.762;23.598;2023-06-22T12:14:05;97558.39;;;27.93;50.43
61359;BME280;47228;46.762;23.598;2023-06-22T12:16:33;97554.65;;;27.98;49.94
61359;BME280;47228;46.762;23.598;2023-06-22T12:19:01;97548.40;;;28.05;50.01
61359;BME280;47228;46.762;23.598;2023-06-22T12:21:29;97548.81;;;28.06;49.22
61359;BME280;47228;46.762;23.598;2023-06-22T12:23:57;97548.08;;;28.00;49.92
61359;BME280;47228;46.762;23.598;2023-06-22T12:26:25;97542.25;;;28.02;49.97
61359;BME280;47228;46.762;23.598;2023-06-22T12:28:52;97539.43;;;28.04;49.74
61359;BME280;47228;46.762;23.598;2023-06-22T12:31:20;97533.86;;;28.08;49.49
61359;BME280;47228;46.762;23.598;2023-06-22T12:33:48;97536.04;;;28.12;48.76
61359;BME280;47228;46.762;23.598;2023-06-22T12:36:16;97534.11;;;28.13;48.43
61359;BME280;47228;46.762;23.598;2023-06-22T12:38:44;97532.33;;;28.10;48.80
61359;BME280;47228;46.762;23.598;2023-06-22T12:41:12;97526.02;;;28.10;49.46
61359;BME280;47228;46.762;23.598;2023-06-22T12:43:40;97523.09;;;28.12;50.61
61359;BME280;47228;46.762;23.598;2023-06-22T12:46:08;97517.83;;;28.15;50.99
61359;BME280;47228;46.762;23.598;2023-06-22T12:48:36;97515.41;;;28.20;50.78
61359;BME280;47228;46.762;23.598;2023-06-22T12:51:09;97511.13;;;28.25;50.43
61359;BME280;47228;46.762;23.598;2023-06-22T12:53:37;97507.63;;;28.28;50.19
61359;BME280;47228;46.762;23.598;2023-06-22T12:56:05;97505.77;;;28.35;50.31
61359;BME280;47228;46.762;23.598;2023-06-22T12:58:33;97506.24;;;28.40;49.63
61359;BME280;47228;46.762;23.598;2023-06-22T13:01:01;97507.16;;;28.41;48.99
61359;BME280;47228;46.762;23.598;2023-06-22T13:03:29;97508.28;;;28.42;48.96
61359;BME280;47228;46.762;23.598;2023-06-22T13:05:57;97508.51;;;28.42;48.96